Time,TemperatureF,DewpointF,PressureIn,WindDirection,WindDirectionDegrees,WindSpeedMPH,WindSpeedGustMPH,Humidity,HourlyPrecipIn,Conditions,Clouds,dailyrainin,SolarRadiationWatts/m^2,SoftwareType,DateUTC
2013-09-14 00:01:00,58.3,51.5,30.04,South,172,2.0,2.0,78,0.00,,,0.00,0,Wunderground v.1.15,2013-09-14 05:01:00,
2013-09-14 00:06:00,57.7,51.2,30.04,SSE,156,2.0,2.0,79,0.00,,,0.00,0,Wunderground v.1.15,2013-09-14 05:06:00,
2013-09-14 00:12:00,57.5,51.4,30.03,SSE,153,2.0,2.0,80,0.00,,,0.00,0,Wunderground v.1.15,2013-09-14 05:12:00,
2013-09-14 00:17:00,57.5,51.7,30.03,SSE,154,2.0,3.0,81,0.00,,,0.00,0,Wunderground v.1.15,2013-09-14 05:17:00,
2013-09-14 00:22:00,57.4,51.6,30.03,SSE,154,2.0,2.0,81,0.00,,,0.00,0,Wunderground v.1.15,2013-09-14 05:22:00,
2013-09-14 00:27:00,57.6,52.1,30.03,South,169,2.0,2.0,82,0.00,,,0.00,0,Wunderground v.1.15,2013-09-14 05:27:00,
2013-09-14 00:33:00,57.3,52.2,30.03,SSE,150,2.0,2.0,83,0.00,,,0.00,0,Wunderground v.1.15,2013-09-14 05:33:00,
2013-09-14 00:40:00,57.2,52.4,30.03,SSE,149,2.0,3.0,84,0.00,,,0.00,0,Wunderground v.1.15,2013-09-14 05:40:00,
2013-09-14 00:46:00,57.6,52.8,30.03,SSE,155,2.0,3.0,84,0.00,,,0.00,0,Wunderground v.1.15,2013-09-14 05:46:00,
2013-09-14 00:52:00,57.2,52.7,30.03,SSE,150,2.0,4.0,85,0.00,,,0.00,0,Wunderground v.1.15,2013-09-14 05:52:00,
2013-09-14 00:57:00,57.4,52.6,30.03,SSE,157,2.0,4.0,84,0.00,,,0.00,0,Wunderground v.1.15,2013-09-14 05:57:00,
2013-09-14 01:02:00,57.4,52.6,30.03,SSE,148,3.0,3.0,84,0.00,,,0.00,0,Wunderground v.1.15,2013-09-14 06:02:00,
2013-09-14 01:07:00,57.5,52.7,30.02,SSE,161,3.0,5.0,84,0.00,,,0.00,0,Wunderground v.1.15,2013-09-14 06:07:00,
2013-09-14 01:16:00,57.7,52.2,30.02,SSE,153,3.0,3.0,82,0.00,,,0.00,0,Wunderground v.1.15,2013-09-14 06:16:00,
2013-09-14 01:21:00,57.7,52.2,30.02,SSE,157,3.0,3.0,82,0.00,,,0.00,0,Wunderground v.1.15,2013-09-14 06:21:00,
2013-09-14 01:26:00,57.8,52.3,30.02,SSE,153,3.0,3.0,82,0.00,,,0.00,0,Wunderground v.1.15,2013-09-14 06:26:00,
2013-09-14 01:31:00,57.6,52.1,30.03,SSE,157,3.0,5.0,82,0.00,,,0.00,0,Wunderground v.1.15,2013-09-14 06:31:00,
2013-09-14 01:36:00,57.7,52.2,30.02,SSE,150,3.0,3.0,82,0.00,,,0.00,0,Wunderground v.1.15,2013-09-14 06:36:00,
2013-09-14 01:41:00,57.7,52.2,30.02,South,177,3.0,4.0,82,0.00,,,0.00,0,Wunderground v.1.15,2013-09-14 06:41:00,
2013-09-14 01:46:00,57.6,52.1,30.02,SSE,159,3.0,4.0,82,0.00,,,0.00,0,Wunderground v.1.15,2013-09-14 06:46:00,
2013-09-14 01:51:00,57.5,52.0,30.03,SSE,166,3.0,4.0,82,0.00,,,0.00,0,Wunderground v.1.15,2013-09-14 06:51:00,
2013-09-14 01:56:00,57.3,51.9,30.03,South,169,3.0,5.0,82,0.00,,,0.00,0,Wunderground v.1.15,2013-09-14 06:56:00,
2013-09-14 02:01:00,57.1,51.7,30.03,SSE,159,3.0,5.0,82,0.00,,,0.00,0,Wunderground v.1.15,2013-09-14 07:01:00,
2013-09-14 02:06:00,56.9,51.5,30.03,SSE,167,3.0,5.0,82,0.00,,,0.00,0,Wunderground v.1.15,2013-09-14 07:06:00,
2013-09-14 02:12:00,56.8,51.7,30.03,SSE,161,3.0,3.0,83,0.00,,,0.00,0,Wunderground v.1.15,2013-09-14 07:12:00,
2013-09-14 02:17:00,56.6,51.5,30.03,South,172,3.0,4.0,83,0.00,,,0.00,0,Wunderground v.1.15,2013-09-14 07:17:00,
2013-09-14 02:22:00,56.1,51.3,30.03,South,174,3.0,4.0,84,0.00,,,0.00,0,Wunderground v.1.15,2013-09-14 07:22:00,
2013-09-14 02:28:00,55.8,51.0,30.03,South,171,2.0,4.0,84,0.00,,,0.00,0,Wunderground v.1.15,2013-09-14 07:28:00,
2013-09-14 02:34:00,55.7,51.3,30.03,SSE,156,2.0,3.0,85,0.00,,,0.00,0,Wunderground v.1.15,2013-09-14 07:34:00,
2013-09-14 02:40:00,55.0,50.9,30.03,SSE,155,2.0,2.0,86,0.00,,,0.00,0,Wunderground v.1.15,2013-09-14 07:40:00,
2013-09-14 02:46:00,54.0,50.5,30.03,SSE,147,2.0,3.0,88,0.00,,,0.00,0,Wunderground v.1.15,2013-09-14 07:46:00,
2013-09-14 02:51:00,54.1,50.9,30.03,SSE,147,2.0,3.0,89,0.00,,,0.00,0,Wunderground v.1.15,2013-09-14 07:51:00,
2013-09-14 02:56:00,54.5,51.3,30.03,SE,145,3.0,3.0,89,0.00,,,0.00,0,Wunderground v.1.15,2013-09-14 07:56:00,
2013-09-14 03:02:00,54.7,51.5,30.03,SE,138,3.0,3.0,89,0.00,,,0.00,0,Wunderground v.1.15,2013-09-14 08:02:00,
2013-09-14 03:07:00,54.5,51.3,30.03,SE,136,3.0,3.0,89,0.00,,,0.00,0,Wunderground v.1.15,2013-09-14 08:07:00,
2013-09-14 03:12:00,54.4,51.2,30.03,SSE,148,3.0,3.0,89,0.00,,,0.00,0,Wunderground v.1.15,2013-09-14 08:12:00,
2013-09-14 03:17:00,54.6,51.1,30.03,SSE,157,3.0,3.0,88,0.00,,,0.00,0,Wunderground v.1.15,2013-09-14 08:17:00,
2013-09-14 03:23:00,54.2,50.7,30.03,SE,140,3.0,3.0,88,0.00,,,0.00,0,Wunderground v.1.15,2013-09-14 08:23:00,
2013-09-14 03:29:00,54.1,50.9,30.03,SE,132,3.0,3.0,89,0.00,,,0.00,0,Wunderground v.1.15,2013-09-14 08:29:00,
2013-09-14 03:34:00,53.9,50.7,30.03,SSE,155,2.0,2.0,89,0.00,,,0.00,0,Wunderground v.1.15,2013-09-14 08:34:00,
2013-09-14 03:40:00,53.8,50.6,30.03,SE,146,2.0,2.0,89,0.00,,,0.00,0,Wunderground v.1.15,2013-09-14 08:40:00,
2013-09-14 03:46:00,53.5,50.3,30.03,SSE,158,2.0,4.0,89,0.00,,,0.00,0,Wunderground v.1.15,2013-09-14 08:46:00,
2013-09-14 03:52:00,53.5,50.6,30.03,SSE,147,2.0,3.0,90,0.00,,,0.00,0,Wunderground v.1.15,2013-09-14 08:52:00,
2013-09-14 03:57:00,54.0,50.8,30.03,SE,140,2.0,3.0,89,0.00,,,0.00,0,Wunderground v.1.15,2013-09-14 08:57:00,
2013-09-14 04:02:00,53.9,50.4,30.03,SE,145,2.0,2.0,88,0.00,,,0.00,0,Wunderground v.1.15,2013-09-14 09:02:00,
2013-09-14 04:08:00,53.8,50.3,30.03,SE,143,2.0,3.0,88,0.00,,,0.00,0,Wunderground v.1.15,2013-09-14 09:08:00,
2013-09-14 04:14:00,53.6,50.1,30.03,SE,130,3.0,4.0,88,0.00,,,0.00,0,Wunderground v.1.15,2013-09-14 09:14:00,
2013-09-14 04:20:00,54.0,50.5,30.03,SSE,148,3.0,3.0,88,0.00,,,0.00,0,Wunderground v.1.15,2013-09-14 09:20:00,
2013-09-14 04:25:00,54.2,50.4,30.03,SE,145,3.0,3.0,87,0.00,,,0.00,0,Wunderground v.1.15,2013-09-14 09:25:00,
2013-09-14 04:31:00,54.1,50.3,30.03,SE,140,2.0,3.0,87,0.00,,,0.00,0,Wunderground v.1.15,2013-09-14 09:31:00,
2013-09-14 04:36:00,53.9,50.4,30.03,SE,140,2.0,3.0,88,0.00,,,0.00,0,Wunderground v.1.15,2013-09-14 09:36:00,
2013-09-14 04:42:00,53.8,50.3,30.02,SE,139,3.0,4.0,88,0.00,,,0.00,0,Wunderground v.1.15,2013-09-14 09:42:00,
2013-09-14 04:47:00,53.7,50.5,30.02,SSE,149,3.0,4.0,89,0.00,,,0.00,0,Wunderground v.1.15,2013-09-14 09:47:00,
2013-09-14 04:52:00,54.0,50.8,30.02,SE,138,3.0,3.0,89,0.00,,,0.00,0,Wunderground v.1.15,2013-09-14 09:52:00,
2013-09-14 04:57:00,54.5,50.7,30.02,SSE,147,3.0,6.0,87,0.00,,,0.00,0,Wunderground v.1.15,2013-09-14 09:57:00,
2013-09-14 05:02:00,54.8,51.0,30.02,SSE,157,3.0,3.0,87,0.00,,,0.00,0,Wunderground v.1.15,2013-09-14 10:02:00,
2013-09-14 05:07:00,55.2,50.8,30.02,SE,142,3.0,4.0,85,0.00,,,0.00,0,Wunderground v.1.15,2013-09-14 10:07:00,
2013-09-14 05:13:00,55.3,50.9,30.02,SE,146,4.0,5.0,85,0.00,,,0.00,0,Wunderground v.1.15,2013-09-14 10:13:00,
2013-09-14 05:19:00,55.3,50.9,30.02,SE,138,4.0,5.0,85,0.00,,,0.00,0,Wunderground v.1.15,2013-09-14 10:19:00,
2013-09-14 05:24:00,55.2,50.8,30.02,SE,138,4.0,7.0,85,0.00,,,0.00,0,Wunderground v.1.15,2013-09-14 10:24:00,
2013-09-14 05:29:00,55.3,50.5,30.02,SE,136,5.0,7.0,84,0.00,,,0.00,0,Wunderground v.1.15,2013-09-14 10:29:00,
2013-09-14 05:34:00,55.4,50.6,30.02,SSE,152,6.0,8.0,84,0.00,,,0.00,0,Wunderground v.1.15,2013-09-14 10:34:00,
2013-09-14 05:40:00,55.5,50.1,30.03,SE,135,6.0,6.0,82,0.00,,,0.00,0,Wunderground v.1.15,2013-09-14 10:40:00,
2013-09-14 05:46:00,55.6,50.2,30.02,SE,124,5.0,6.0,82,0.00,,,0.00,0,Wunderground v.1.15,2013-09-14 10:46:00,
2013-09-14 05:52:00,55.5,49.8,30.02,SSE,160,5.0,8.0,81,0.00,,,0.00,0,Wunderground v.1.15,2013-09-14 10:52:00,
2013-09-14 05:57:00,55.5,50.1,30.02,ESE,123,5.0,8.0,82,0.00,,,0.00,0,Wunderground v.1.15,2013-09-14 10:57:00,
2013-09-14 06:03:00,55.4,49.7,30.03,SSE,159,5.0,6.0,81,0.00,,,0.00,0,Wunderground v.1.15,2013-09-14 11:03:00,
2013-09-14 06:09:00,55.3,49.6,30.03,SE,140,4.0,6.0,81,0.00,,,0.00,0,Wunderground v.1.15,2013-09-14 11:09:00,
2013-09-14 06:14:00,55.3,49.9,30.03,SSE,165,4.0,5.0,82,0.00,,,0.00,0,Wunderground v.1.15,2013-09-14 11:14:00,
2013-09-14 06:19:00,55.2,49.8,30.03,SSE,161,4.0,7.0,82,0.00,,,0.00,0,Wunderground v.1.15,2013-09-14 11:19:00,
2013-09-14 06:24:00,55.1,50.4,30.03,SSE,155,4.0,5.0,84,0.00,,,0.00,0,Wunderground v.1.15,2013-09-14 11:24:00,
2013-09-14 06:29:00,54.9,50.5,30.03,SSE,162,3.0,5.0,85,0.00,,,0.00,0,Wunderground v.1.15,2013-09-14 11:29:00,
2013-09-14 06:35:00,54.8,50.4,30.03,SSE,157,2.0,3.0,85,0.00,,,0.00,0,Wunderground v.1.15,2013-09-14 11:35:00,
2013-09-14 06:41:00,54.7,50.6,30.03,South,176,3.0,5.0,86,0.00,,,0.00,0,Wunderground v.1.15,2013-09-14 11:41:00,
2013-09-14 06:46:00,54.6,50.2,30.03,SSE,155,4.0,5.0,85,0.00,,,0.00,0,Wunderground v.1.15,2013-09-14 11:46:00,
2013-09-14 06:51:00,54.5,50.1,30.03,SSE,155,4.0,4.0,85,0.00,,,0.00,0,Wunderground v.1.15,2013-09-14 11:51:00,
2013-09-14 06:56:00,54.5,50.1,30.03,SSE,163,4.0,6.0,85,0.00,,,0.00,0,Wunderground v.1.15,2013-09-14 11:56:00,
2013-09-14 07:02:00,54.5,50.4,30.03,SSE,165,3.0,4.0,86,0.00,,,0.00,5,Wunderground v.1.15,2013-09-14 12:02:00,
2013-09-14 07:07:00,54.5,50.4,30.02,SSE,161,4.0,6.0,86,0.00,,,0.00,5,Wunderground v.1.15,2013-09-14 12:07:00,
2013-09-14 07:12:00,54.8,50.4,30.02,SSE,168,4.0,6.0,85,0.00,,,0.00,7,Wunderground v.1.15,2013-09-14 12:12:00,
2013-09-14 07:17:00,55.1,50.0,30.03,SE,140,5.0,7.0,83,0.00,,,0.00,9,Wunderground v.1.15,2013-09-14 12:17:00,
2013-09-14 07:22:00,55.2,50.4,30.03,SSE,160,5.0,5.0,84,0.00,,,0.00,14,Wunderground v.1.15,2013-09-14 12:22:00,
2013-09-14 07:27:00,55.1,50.4,30.03,SE,134,5.0,5.0,84,0.00,,,0.00,18,Wunderground v.1.15,2013-09-14 12:27:00,
2013-09-14 07:33:00,55.2,50.4,30.03,SSE,156,5.0,6.0,84,0.00,,,0.00,18,Wunderground v.1.15,2013-09-14 12:33:00,
2013-09-14 07:38:00,55.3,50.5,30.03,SSE,153,5.0,6.0,84,0.00,,,0.00,19,Wunderground v.1.15,2013-09-14 12:38:00,
2013-09-14 07:44:00,55.5,50.4,30.03,SSE,166,5.0,5.0,83,0.00,,,0.00,26,Wunderground v.1.15,2013-09-14 12:44:00,
2013-09-14 07:49:00,55.7,50.6,30.03,SSE,151,4.0,6.0,83,0.00,,,0.00,39,Wunderground v.1.15,2013-09-14 12:49:00,
2013-09-14 07:54:00,55.8,50.7,30.02,ESE,122,4.0,7.0,83,0.00,,,0.00,44,Wunderground v.1.15,2013-09-14 12:54:00,
2013-09-14 07:59:00,55.9,50.5,30.02,SE,129,5.0,7.0,82,0.00,,,0.00,46,Wunderground v.1.15,2013-09-14 12:59:00,
2013-09-14 08:04:00,56.0,50.6,30.02,SSE,166,5.0,6.0,82,0.00,,,0.00,47,Wunderground v.1.15,2013-09-14 13:04:00,
2013-09-14 08:10:00,56.1,50.7,30.03,SE,140,5.0,7.0,82,0.00,,,0.00,49,Wunderground v.1.15,2013-09-14 13:10:00,
2013-09-14 08:16:00,56.2,50.8,30.03,SE,132,5.0,7.0,82,0.00,,,0.00,69,Wunderground v.1.15,2013-09-14 13:16:00,
2013-09-14 08:22:00,56.4,51.0,30.03,SSE,156,4.0,6.0,82,0.00,,,0.00,95,Wunderground v.1.15,2013-09-14 13:22:00,
2013-09-14 08:27:00,56.7,51.3,30.03,SSE,157,5.0,7.0,82,0.00,,,0.00,116,Wunderground v.1.15,2013-09-14 13:27:00,
2013-09-14 08:32:00,57.0,51.2,30.03,SE,146,5.0,8.0,81,0.00,,,0.00,125,Wunderground v.1.15,2013-09-14 13:32:00,
2013-09-14 08:37:00,57.4,51.3,30.03,SSE,161,6.0,8.0,80,0.00,,,0.00,123,Wunderground v.1.15,2013-09-14 13:37:00,
2013-09-14 08:42:00,57.7,51.6,30.03,SSE,161,6.0,6.0,80,0.00,,,0.00,120,Wunderground v.1.15,2013-09-14 13:42:00,
2013-09-14 08:47:00,57.8,51.7,30.03,South,175,6.0,12.0,80,0.00,,,0.00,128,Wunderground v.1.15,2013-09-14 13:47:00,
2013-09-14 08:52:00,58.0,51.5,30.03,SSE,162,7.0,10.0,79,0.00,,,0.00,142,Wunderground v.1.15,2013-09-14 13:52:00,
2013-09-14 08:58:00,58.6,52.1,30.03,SSE,167,8.0,12.0,79,0.00,,,0.00,316,Wunderground v.1.15,2013-09-14 13:58:00,
2013-09-14 09:03:00,59.4,51.8,30.03,South,180,8.0,13.0,76,0.00,,,0.00,341,Wunderground v.1.15,2013-09-14 14:03:00,
2013-09-14 09:08:00,59.9,52.0,30.03,South,174,9.0,13.0,75,0.00,,,0.00,290,Wunderground v.1.15,2013-09-14 14:08:00,
2013-09-14 09:14:00,60.7,52.4,30.02,South,169,10.0,12.0,74,0.00,,,0.00,418,Wunderground v.1.15,2013-09-14 14:14:00,
2013-09-14 09:19:00,61.4,52.7,30.02,SE,131,9.0,12.0,73,0.00,,,0.00,448,Wunderground v.1.15,2013-09-14 14:19:00,
2013-09-14 09:25:00,62.2,52.7,30.02,SSE,159,10.0,15.0,71,0.00,,,0.00,499,Wunderground v.1.15,2013-09-14 14:25:00,
2013-09-14 09:31:00,62.8,52.9,30.02,South,175,11.0,11.0,70,0.00,,,0.00,462,Wunderground v.1.15,2013-09-14 14:31:00,
2013-09-14 09:36:00,63.2,53.3,30.02,SSE,158,10.0,13.0,70,0.00,,,0.00,394,Wunderground v.1.15,2013-09-14 14:36:00,
2013-09-14 09:42:00,63.3,53.0,30.02,SSE,165,10.0,12.0,69,0.00,,,0.00,353,Wunderground v.1.15,2013-09-14 14:42:00,
2013-09-14 09:47:00,62.9,52.6,30.02,SSW,192,11.0,15.0,69,0.00,,,0.00,169,Wunderground v.1.15,2013-09-14 14:47:00,
2013-09-14 09:52:00,62.7,53.2,30.02,SSW,192,10.0,15.0,71,0.00,,,0.00,281,Wunderground v.1.15,2013-09-14 14:52:00,
2013-09-14 09:57:00,63.2,53.3,30.02,South,178,9.0,15.0,70,0.00,,,0.00,387,Wunderground v.1.15,2013-09-14 14:57:00,
2013-09-14 10:03:00,64.3,54.3,30.02,SSE,150,8.0,11.0,70,0.00,,,0.00,520,Wunderground v.1.15,2013-09-14 15:03:00,
2013-09-14 10:09:00,64.9,53.3,30.02,SW,215,9.0,21.0,66,0.00,,,0.00,503,Wunderground v.1.15,2013-09-14 15:09:00,
2013-09-14 10:15:00,65.4,52.9,30.02,SSE,152,12.0,21.0,64,0.00,,,0.00,524,Wunderground v.1.15,2013-09-14 15:15:00,
2013-09-14 10:20:00,65.7,54.0,30.02,SSW,199,12.0,12.0,66,0.00,,,0.00,446,Wunderground v.1.15,2013-09-14 15:20:00,
2013-09-14 10:25:00,65.7,53.6,30.02,SSE,161,11.0,16.0,65,0.00,,,0.00,243,Wunderground v.1.15,2013-09-14 15:25:00,
2013-09-14 10:30:00,65.3,53.2,30.02,SSE,159,12.0,12.0,65,0.00,,,0.00,257,Wunderground v.1.15,2013-09-14 15:30:00,
2013-09-14 10:36:00,65.7,53.6,30.01,SSE,157,11.0,15.0,65,0.00,,,0.00,476,Wunderground v.1.15,2013-09-14 15:36:00,
2013-09-14 10:41:00,66.4,54.3,30.01,South,171,11.0,11.0,65,0.00,,,0.00,545,Wunderground v.1.15,2013-09-14 15:41:00,
2013-09-14 10:46:00,66.9,54.7,30.01,South,173,10.0,11.0,65,0.00,,,0.00,615,Wunderground v.1.15,2013-09-14 15:46:00,
2013-09-14 10:51:00,67.7,55.1,30.01,SE,144,9.0,11.0,64,0.00,,,0.00,450,Wunderground v.1.15,2013-09-14 15:51:00,
2013-09-14 10:56:00,67.4,53.9,30.01,SSE,147,11.0,16.0,62,0.00,,,0.00,320,Wunderground v.1.15,2013-09-14 15:56:00,
2013-09-14 11:02:00,67.0,53.5,30.01,SSE,159,13.0,17.0,62,0.00,,,0.00,508,Wunderground v.1.15,2013-09-14 16:02:00,
2013-09-14 11:07:00,67.6,55.0,30.01,South,190,11.0,17.0,64,0.00,,,0.00,650,Wunderground v.1.15,2013-09-14 16:07:00,
2013-09-14 11:12:00,68.2,54.7,30.00,SSE,158,11.0,11.0,62,0.00,,,0.00,712,Wunderground v.1.15,2013-09-14 16:12:00,
2013-09-14 11:17:00,68.6,54.6,30.00,South,174,11.0,17.0,61,0.00,,,0.00,729,Wunderground v.1.15,2013-09-14 16:17:00,
2013-09-14 11:22:00,69.5,55.9,30.00,SSE,165,11.0,14.0,62,0.00,,,0.00,759,Wunderground v.1.15,2013-09-14 16:22:00,
2013-09-14 11:28:00,70.2,54.2,30.00,SE,137,11.0,19.0,57,0.00,,,0.00,712,Wunderground v.1.15,2013-09-14 16:28:00,
2013-09-14 11:33:00,69.7,54.3,30.00,SSE,159,13.0,18.0,58,0.00,,,0.00,673,Wunderground v.1.15,2013-09-14 16:33:00,
2013-09-14 11:38:00,69.5,54.1,30.00,SE,134,12.0,18.0,58,0.00,,,0.00,318,Wunderground v.1.15,2013-09-14 16:38:00,
2013-09-14 11:43:00,68.8,53.9,30.00,SSW,192,11.0,15.0,59,0.00,,,0.00,299,Wunderground v.1.15,2013-09-14 16:43:00,
2013-09-14 11:48:00,68.6,54.2,29.99,SSE,161,12.0,21.0,60,0.00,,,0.00,311,Wunderground v.1.15,2013-09-14 16:48:00,
2013-09-14 11:54:00,68.5,54.1,29.99,South,180,12.0,14.0,60,0.00,,,0.00,301,Wunderground v.1.15,2013-09-14 16:54:00,
2013-09-14 12:00:00,69.7,55.6,29.99,South,169,11.0,19.0,61,0.00,,,0.00,698,Wunderground v.1.15,2013-09-14 17:00:00,
2013-09-14 12:05:00,70.2,55.7,29.99,SSE,162,9.0,19.0,60,0.00,,,0.00,478,Wunderground v.1.15,2013-09-14 17:05:00,
2013-09-14 12:10:00,71.0,55.0,29.99,SSE,161,10.0,23.0,57,0.00,,,0.00,584,Wunderground v.1.15,2013-09-14 17:10:00,
2013-09-14 12:15:00,70.8,54.8,29.98,South,176,13.0,23.0,57,0.00,,,0.00,756,Wunderground v.1.15,2013-09-14 17:15:00,
2013-09-14 12:20:00,70.3,53.9,29.98,SSW,207,14.0,14.0,56,0.00,,,0.00,357,Wunderground v.1.15,2013-09-14 17:20:00,
2013-09-14 12:26:00,70.1,54.2,29.98,SSE,165,13.0,19.0,57,0.00,,,0.00,510,Wunderground v.1.15,2013-09-14 17:26:00,
2013-09-14 12:31:00,70.6,54.6,29.98,SSE,163,13.0,18.0,57,0.00,,,0.00,707,Wunderground v.1.15,2013-09-14 17:31:00,
2013-09-14 12:36:00,71.3,54.8,29.97,South,177,14.0,24.0,56,0.00,,,0.00,631,Wunderground v.1.15,2013-09-14 17:36:00,
2013-09-14 12:42:00,71.6,56.0,29.97,SSE,150,13.0,16.0,58,0.00,,,0.00,729,Wunderground v.1.15,2013-09-14 17:42:00,
2013-09-14 12:48:00,71.3,55.3,29.97,SSE,150,13.0,16.0,57,0.00,,,0.00,373,Wunderground v.1.15,2013-09-14 17:48:00,
2013-09-14 12:54:00,71.0,55.0,29.96,South,182,12.0,15.0,57,0.00,,,0.00,626,Wunderground v.1.15,2013-09-14 17:54:00,
2013-09-14 12:59:00,71.5,55.5,29.97,SE,143,11.0,18.0,57,0.00,,,0.00,552,Wunderground v.1.15,2013-09-14 17:59:00,
2013-09-14 13:05:00,71.9,55.8,29.96,South,170,11.0,15.0,57,0.00,,,0.00,526,Wunderground v.1.15,2013-09-14 18:05:00,
2013-09-14 13:11:00,72.1,55.0,29.96,South,173,12.0,14.0,55,0.00,,,0.00,506,Wunderground v.1.15,2013-09-14 18:11:00,
2013-09-14 13:17:00,72.4,55.3,29.96,SE,137,11.0,14.0,55,0.00,,,0.00,506,Wunderground v.1.15,2013-09-14 18:17:00,
2013-09-14 13:22:00,72.7,54.1,29.95,SSE,164,11.0,19.0,52,0.00,,,0.00,515,Wunderground v.1.15,2013-09-14 18:22:00,
2013-09-14 13:27:00,73.0,55.4,29.95,South,185,12.0,19.0,54,0.00,,,0.00,483,Wunderground v.1.15,2013-09-14 18:27:00,
2013-09-14 13:33:00,73.0,54.9,29.95,South,184,12.0,13.0,53,0.00,,,0.00,577,Wunderground v.1.15,2013-09-14 18:33:00,
2013-09-14 13:39:00,73.6,55.4,29.95,South,180,10.0,13.0,53,0.00,,,0.00,536,Wunderground v.1.15,2013-09-14 18:39:00,
2013-09-14 13:45:00,73.9,55.2,29.94,SSE,161,11.0,15.0,52,0.00,,,0.00,536,Wunderground v.1.15,2013-09-14 18:45:00,
2013-09-14 13:51:00,73.1,54.9,29.94,SSE,165,12.0,16.0,53,0.00,,,0.00,373,Wunderground v.1.15,2013-09-14 18:51:00,
2013-09-14 13:57:00,73.4,55.7,29.94,SW,221,11.0,16.0,54,0.00,,,0.00,552,Wunderground v.1.15,2013-09-14 18:57:00,
2013-09-14 14:02:00,73.7,55.0,29.94,South,169,10.0,18.0,52,0.00,,,0.00,698,Wunderground v.1.15,2013-09-14 19:02:00,
2013-09-14 14:07:00,74.7,55.9,29.93,South,179,11.0,18.0,52,0.00,,,0.00,575,Wunderground v.1.15,2013-09-14 19:07:00,
2013-09-14 14:13:00,74.2,54.9,29.93,SSW,203,11.0,11.0,51,0.00,,,0.00,531,Wunderground v.1.15,2013-09-14 19:13:00,
2013-09-14 14:19:00,74.0,54.7,29.93,South,183,10.0,15.0,51,0.00,,,0.00,366,Wunderground v.1.15,2013-09-14 19:19:00,
2013-09-14 14:25:00,73.4,54.7,29.92,SE,131,11.0,11.0,52,0.00,,,0.00,380,Wunderground v.1.15,2013-09-14 19:25:00,
2013-09-14 14:31:00,73.5,54.3,29.92,South,188,11.0,11.0,51,0.00,,,0.00,464,Wunderground v.1.15,2013-09-14 19:31:00,
2013-09-14 14:37:00,73.6,55.4,29.92,SSE,167,11.0,16.0,53,0.00,,,0.00,466,Wunderground v.1.15,2013-09-14 19:37:00,
2013-09-14 14:42:00,73.9,56.2,29.92,South,187,10.0,10.0,54,0.00,,,0.00,631,Wunderground v.1.15,2013-09-14 19:42:00,
2013-09-14 14:47:00,74.8,57.0,29.92,SSE,148,9.0,14.0,54,0.00,,,0.00,798,Wunderground v.1.15,2013-09-14 19:47:00,
2013-09-14 14:52:00,75.7,56.3,29.91,SSE,165,10.0,16.0,51,0.00,,,0.00,759,Wunderground v.1.15,2013-09-14 19:52:00,
2013-09-14 14:57:00,75.4,55.5,29.91,South,176,12.0,19.0,50,0.00,,,0.00,798,Wunderground v.1.15,2013-09-14 19:57:00,
2013-09-14 15:03:00,74.8,54.4,29.91,SE,140,12.0,14.0,49,0.00,,,0.00,686,Wunderground v.1.15,2013-09-14 20:03:00,
2013-09-14 15:08:00,75.2,54.2,29.91,South,185,12.0,19.0,48,0.00,,,0.00,738,Wunderground v.1.15,2013-09-14 20:08:00,
2013-09-14 15:13:00,74.6,54.2,29.91,SSW,208,13.0,14.0,49,0.00,,,0.00,316,Wunderground v.1.15,2013-09-14 20:13:00,
2013-09-14 15:19:00,75.1,55.7,29.90,South,186,12.0,15.0,51,0.00,,,0.00,742,Wunderground v.1.15,2013-09-14 20:19:00,
2013-09-14 15:25:00,75.8,55.3,29.90,SE,141,11.0,15.0,49,0.00,,,0.00,772,Wunderground v.1.15,2013-09-14 20:25:00,
2013-09-14 15:31:00,75.5,54.4,29.89,SSE,155,11.0,11.0,48,0.00,,,0.00,462,Wunderground v.1.15,2013-09-14 20:31:00,
2013-09-14 15:37:00,75.5,54.4,29.89,SSE,159,11.0,15.0,48,0.00,,,0.00,397,Wunderground v.1.15,2013-09-14 20:37:00,
2013-09-14 15:43:00,75.2,55.3,29.89,South,174,12.0,16.0,50,0.00,,,0.00,271,Wunderground v.1.15,2013-09-14 20:43:00,
2013-09-14 15:49:00,74.9,55.0,29.89,SSE,153,12.0,16.0,50,0.00,,,0.00,301,Wunderground v.1.15,2013-09-14 20:49:00,
2013-09-14 15:55:00,75.1,55.2,29.89,SSE,165,12.0,15.0,50,0.00,,,0.00,411,Wunderground v.1.15,2013-09-14 20:55:00,
2013-09-14 16:01:00,75.1,55.7,29.89,SE,144,11.0,11.0,51,0.00,,,0.00,304,Wunderground v.1.15,2013-09-14 21:01:00,
2013-09-14 16:06:00,74.9,56.1,29.88,SW,232,9.0,14.0,52,0.00,,,0.00,283,Wunderground v.1.15,2013-09-14 21:06:00,
2013-09-14 16:11:00,75.2,56.4,29.88,South,178,7.0,8.0,52,0.00,,,0.00,290,Wunderground v.1.15,2013-09-14 21:11:00,
2013-09-14 16:16:00,75.5,54.4,29.88,South,173,9.0,12.0,48,0.00,,,0.00,285,Wunderground v.1.15,2013-09-14 21:16:00,
2013-09-14 16:21:00,75.4,54.9,29.87,SE,137,10.0,11.0,49,0.00,,,0.00,299,Wunderground v.1.15,2013-09-14 21:21:00,
2013-09-14 16:27:00,75.4,54.9,29.87,SSE,160,10.0,14.0,49,0.00,,,0.00,299,Wunderground v.1.15,2013-09-14 21:27:00,
2013-09-14 16:32:00,75.6,55.6,29.87,SSE,163,12.0,13.0,50,0.00,,,0.00,258,Wunderground v.1.15,2013-09-14 21:32:00,
2013-09-14 16:37:00,75.4,55.5,29.87,South,189,11.0,13.0,50,0.00,,,0.00,211,Wunderground v.1.15,2013-09-14 21:37:00,
2013-09-14 16:42:00,75.4,55.5,29.87,SSE,167,10.0,12.0,50,0.00,,,0.00,178,Wunderground v.1.15,2013-09-14 21:42:00,
2013-09-14 16:48:00,75.4,55.5,29.87,South,172,11.0,15.0,50,0.00,,,0.00,128,Wunderground v.1.15,2013-09-14 21:48:00,
2013-09-14 16:53:00,75.3,55.4,29.87,SSE,164,11.0,15.0,50,0.00,,,0.00,100,Wunderground v.1.15,2013-09-14 21:53:00,
2013-09-14 16:59:00,75.1,55.7,29.86,SSE,157,11.0,16.0,51,0.00,,,0.00,127,Wunderground v.1.15,2013-09-14 21:59:00,
2013-09-14 17:04:00,74.3,56.6,29.87,SE,138,12.0,12.0,54,0.00,,,0.00,132,Wunderground v.1.15,2013-09-14 22:04:00,
2013-09-14 17:09:00,73.9,56.2,29.86,South,182,10.0,14.0,54,0.00,,,0.00,135,Wunderground v.1.15,2013-09-14 22:09:00,
2013-09-14 17:14:00,73.7,56.5,29.86,SE,133,9.0,12.0,55,0.00,,,0.00,141,Wunderground v.1.15,2013-09-14 22:14:00,
2013-09-14 17:19:00,73.9,56.2,29.86,SSE,156,7.0,12.0,54,0.00,,,0.00,165,Wunderground v.1.15,2013-09-14 22:19:00,
2013-09-14 17:25:00,74.3,56.6,29.86,SSE,150,7.0,10.0,54,0.00,,,0.00,176,Wunderground v.1.15,2013-09-14 22:25:00,
2013-09-14 17:31:00,74.3,56.6,29.86,SSE,153,8.0,14.0,54,0.00,,,0.00,169,Wunderground v.1.15,2013-09-14 22:31:00,
2013-09-14 17:36:00,74.4,56.7,29.86,SE,124,8.0,14.0,54,0.00,,,0.00,144,Wunderground v.1.15,2013-09-14 22:36:00,
2013-09-14 17:41:00,74.5,56.8,29.86,South,173,8.0,8.0,54,0.00,,,0.00,116,Wunderground v.1.15,2013-09-14 22:41:00,
2013-09-14 17:46:00,74.4,55.6,29.86,SSW,195,8.0,10.0,52,0.00,,,0.00,113,Wunderground v.1.15,2013-09-14 22:46:00,
2013-09-14 17:51:00,74.1,55.3,29.86,South,172,9.0,11.0,52,0.00,,,0.00,97,Wunderground v.1.15,2013-09-14 22:51:00,
2013-09-14 17:57:00,74.1,54.8,29.86,South,183,10.0,12.0,51,0.00,,,0.00,77,Wunderground v.1.15,2013-09-14 22:57:00,
2013-09-14 18:00:00,74.0,55.3,29.86,SSE,165,10.0,10.0,52,0.00,,,0.00,74,Wunderground v.1.15,2013-09-14 23:00:00,
2013-09-14 18:06:00,73.8,56.1,29.85,SSE,163,7.0,10.0,54,0.00,,,0.00,63,Wunderground v.1.15,2013-09-14 23:06:00,
2013-09-14 18:11:00,73.9,55.7,29.85,SSE,147,6.0,9.0,53,0.00,,,0.00,65,Wunderground v.1.15,2013-09-14 23:11:00,
2013-09-14 18:16:00,73.7,56.0,29.85,SSE,157,7.0,9.0,54,0.00,,,0.00,70,Wunderground v.1.15,2013-09-14 23:16:00,
2013-09-14 18:21:00,73.5,56.8,29.85,SSE,165,6.0,6.0,56,0.00,,,0.00,58,Wunderground v.1.15,2013-09-14 23:21:00,
2013-09-14 18:26:00,73.5,56.8,29.86,South,175,6.0,9.0,56,0.00,,,0.00,74,Wunderground v.1.15,2013-09-14 23:26:00,
2013-09-14 18:32:00,73.7,56.5,29.85,South,174,6.0,7.0,55,0.00,,,0.00,90,Wunderground v.1.15,2013-09-14 23:32:00,
2013-09-14 18:37:00,73.7,56.5,29.85,SE,140,6.0,7.0,55,0.00,,,0.00,81,Wunderground v.1.15,2013-09-14 23:37:00,
2013-09-14 18:42:00,73.7,56.5,29.85,SE,141,6.0,7.0,55,0.00,,,0.00,76,Wunderground v.1.15,2013-09-14 23:42:00,
2013-09-14 18:47:00,73.7,55.5,29.85,SSE,161,6.0,7.0,53,0.00,,,0.00,72,Wunderground v.1.15,2013-09-14 23:47:00,
2013-09-14 18:52:00,73.6,55.9,29.85,SSE,157,7.0,7.0,54,0.00,,,0.00,72,Wunderground v.1.15,2013-09-14 23:52:00,
2013-09-14 18:58:00,73.5,56.3,29.85,SE,141,6.0,7.0,55,0.00,,,0.00,69,Wunderground v.1.15,2013-09-14 23:58:00,
2013-09-14 19:03:00,73.3,56.2,29.85,SE,146,6.0,6.0,55,0.00,,,0.00,47,Wunderground v.1.15,2013-09-15 00:03:00,
2013-09-14 19:08:00,73.0,56.4,29.85,SSE,159,6.0,8.0,56,0.00,,,0.00,30,Wunderground v.1.15,2013-09-15 00:08:00,
2013-09-14 19:13:00,72.7,56.1,29.84,SSE,149,6.0,8.0,56,0.00,,,0.00,19,Wunderground v.1.15,2013-09-15 00:13:00,
2013-09-14 19:18:00,72.4,56.8,29.84,SSE,157,6.0,8.0,58,0.00,,,0.00,16,Wunderground v.1.15,2013-09-15 00:18:00,
2013-09-14 19:24:00,72.0,56.4,29.83,ESE,123,5.0,7.0,58,0.00,,,0.00,14,Wunderground v.1.15,2013-09-15 00:24:00,
2013-09-14 19:29:00,71.9,56.3,29.83,SSE,153,5.0,8.0,58,0.00,,,0.00,11,Wunderground v.1.15,2013-09-15 00:29:00,
2013-09-14 19:34:00,71.7,56.1,29.83,SE,145,6.0,9.0,58,0.00,,,0.00,7,Wunderground v.1.15,2013-09-15 00:34:00,
2013-09-14 19:39:00,71.6,56.5,29.83,SE,131,6.0,9.0,59,0.00,,,0.00,5,Wunderground v.1.15,2013-09-15 00:39:00,
2013-09-14 19:44:00,71.3,56.2,29.83,SSE,155,6.0,9.0,59,0.00,,,0.00,0,Wunderground v.1.15,2013-09-15 00:44:00,
2013-09-14 19:50:00,71.1,56.0,29.83,SE,134,7.0,10.0,59,0.00,,,0.00,0,Wunderground v.1.15,2013-09-15 00:50:00,
2013-09-14 19:56:00,70.8,56.2,29.83,ESE,123,7.0,10.0,60,0.00,,,0.00,0,Wunderground v.1.15,2013-09-15 00:56:00,
2013-09-14 20:01:00,70.5,56.4,29.83,ESE,115,6.0,8.0,61,0.00,,,0.00,0,Wunderground v.1.15,2013-09-15 01:01:00,
2013-09-14 20:06:00,70.3,56.7,29.83,SE,144,5.0,8.0,62,0.00,,,0.00,0,Wunderground v.1.15,2013-09-15 01:06:00,
2013-09-14 20:11:00,69.9,56.7,29.83,SE,140,5.0,6.0,63,0.00,,,0.00,0,Wunderground v.1.15,2013-09-15 01:11:00,
2013-09-14 20:16:00,69.6,57.3,29.83,SE,134,5.0,8.0,65,0.00,,,0.00,0,Wunderground v.1.15,2013-09-15 01:16:00,
2013-09-14 20:21:00,69.3,57.0,29.83,ESE,119,6.0,9.0,65,0.00,,,0.00,0,Wunderground v.1.15,2013-09-15 01:21:00,
2013-09-14 20:27:00,69.3,57.5,29.82,SE,142,7.0,10.0,66,0.00,,,0.00,0,Wunderground v.1.15,2013-09-15 01:27:00,
2013-09-14 20:32:00,69.3,57.5,29.83,SE,137,7.0,9.0,66,0.00,,,0.00,0,Wunderground v.1.15,2013-09-15 01:32:00,
2013-09-14 20:37:00,69.5,57.2,29.83,SSE,156,7.0,10.0,65,0.00,,,0.00,0,Wunderground v.1.15,2013-09-15 01:37:00,
2013-09-14 20:42:00,69.4,57.1,29.83,South,169,7.0,9.0,65,0.00,,,0.00,0,Wunderground v.1.15,2013-09-15 01:42:00,
2013-09-14 20:47:00,69.5,57.2,29.83,SSE,166,7.0,9.0,65,0.00,,,0.00,0,Wunderground v.1.15,2013-09-15 01:47:00,
2013-09-14 20:53:00,69.4,57.1,29.83,SSE,157,6.0,8.0,65,0.00,,,0.00,0,Wunderground v.1.15,2013-09-15 01:53:00,
2013-09-14 20:59:00,69.3,57.0,29.83,SSE,154,6.0,8.0,65,0.00,,,0.00,0,Wunderground v.1.15,2013-09-15 01:59:00,
2013-09-14 21:05:00,69.3,57.0,29.83,South,176,7.0,10.0,65,0.00,,,0.00,0,Wunderground v.1.15,2013-09-15 02:05:00,
2013-09-14 21:10:00,69.2,56.9,29.83,SSE,160,7.0,7.0,65,0.00,,,0.00,0,Wunderground v.1.15,2013-09-15 02:10:00,
2013-09-14 21:15:00,69.1,56.8,29.83,SE,126,6.0,7.0,65,0.00,,,0.00,0,Wunderground v.1.15,2013-09-15 02:15:00,
2013-09-14 21:21:00,69.0,56.7,29.83,SSE,148,7.0,7.0,65,0.00,,,0.00,0,Wunderground v.1.15,2013-09-15 02:21:00,
2013-09-14 21:27:00,68.8,57.0,29.83,ESE,115,7.0,10.0,66,0.00,,,0.00,0,Wunderground v.1.15,2013-09-15 02:27:00,
2013-09-14 21:33:00,68.8,57.0,29.83,SSE,148,6.0,6.0,66,0.00,,,0.00,0,Wunderground v.1.15,2013-09-15 02:33:00,
2013-09-14 21:38:00,68.7,56.9,29.83,SSE,163,5.0,8.0,66,0.00,,,0.00,0,Wunderground v.1.15,2013-09-15 02:38:00,
2013-09-14 21:43:00,68.7,56.9,29.83,SE,145,6.0,10.0,66,0.00,,,0.00,0,Wunderground v.1.15,2013-09-15 02:43:00,
2013-09-14 21:48:00,68.6,56.8,29.83,South,175,7.0,10.0,66,0.00,,,0.00,0,Wunderground v.1.15,2013-09-15 02:48:00,
2013-09-14 21:53:00,68.6,56.8,29.83,SSE,148,7.0,9.0,66,0.00,,,0.00,0,Wunderground v.1.15,2013-09-15 02:53:00,
2013-09-14 21:58:00,68.4,57.0,29.83,SE,142,6.0,9.0,67,0.00,,,0.00,0,Wunderground v.1.15,2013-09-15 02:58:00,
2013-09-14 22:04:00,68.4,57.0,29.83,SSE,156,6.0,7.0,67,0.00,,,0.00,0,Wunderground v.1.15,2013-09-15 03:04:00,
2013-09-14 22:09:00,68.4,57.0,29.83,SSE,161,7.0,13.0,67,0.00,,,0.00,0,Wunderground v.1.15,2013-09-15 03:09:00,
2013-09-14 22:14:00,68.3,57.3,29.83,South,186,7.0,7.0,68,0.00,,,0.00,0,Wunderground v.1.15,2013-09-15 03:14:00,
2013-09-14 22:19:00,68.3,57.3,29.83,SSE,155,7.0,10.0,68,0.00,,,0.00,0,Wunderground v.1.15,2013-09-15 03:19:00,
2013-09-14 22:24:00,68.2,57.2,29.83,SSE,164,6.0,7.0,68,0.00,,,0.00,0,Wunderground v.1.15,2013-09-15 03:24:00,
2013-09-14 22:30:00,68.1,57.5,29.83,South,184,6.0,6.0,69,0.00,,,0.00,0,Wunderground v.1.15,2013-09-15 03:30:00,
2013-09-14 22:35:00,67.9,56.9,29.83,South,178,6.0,8.0,68,0.00,,,0.00,0,Wunderground v.1.15,2013-09-15 03:35:00,
2013-09-14 22:41:00,67.9,57.4,29.83,South,176,6.0,6.0,69,0.00,,,0.00,0,Wunderground v.1.15,2013-09-15 03:41:00,
2013-09-14 22:47:00,67.9,57.4,29.83,South,171,6.0,9.0,69,0.00,,,0.00,0,Wunderground v.1.15,2013-09-15 03:47:00,
2013-09-14 22:52:00,67.9,57.4,29.83,South,178,7.0,7.0,69,0.00,,,0.00,0,Wunderground v.1.15,2013-09-15 03:52:00,
2013-09-14 22:57:00,68.0,57.4,29.83,South,175,7.0,10.0,69,0.00,,,0.00,0,Wunderground v.1.15,2013-09-15 03:57:00,
2013-09-14 23:01:00,68.0,57.4,29.83,SSE,155,7.0,8.0,69,0.00,,,0.00,0,Wunderground v.1.15,2013-09-15 04:01:00,
2013-09-14 23:02:00,68.0,57.4,29.83,South,188,7.0,11.0,69,0.00,,,0.00,0,Wunderground v.1.15,2013-09-15 04:02:00,
2013-09-14 23:04:00,68.1,57.5,29.83,SSE,155,7.0,11.0,69,0.00,,,0.00,0,Wunderground v.1.15,2013-09-15 04:04:00,
2013-09-14 23:05:00,68.1,57.5,29.83,SSE,158,7.0,11.0,69,0.00,,,0.00,0,Wunderground v.1.15,2013-09-15 04:05:00,
2013-09-14 23:10:00,68.3,57.7,29.83,South,174,8.0,11.0,69,0.00,,,0.00,0,Wunderground v.1.15,2013-09-15 04:10:00,
2013-09-14 23:11:00,68.3,57.3,29.83,SSE,158,8.0,11.0,68,0.00,,,0.00,0,Wunderground v.1.15,2013-09-15 04:11:00,
2013-09-14 23:13:00,68.3,57.3,29.83,South,186,8.0,11.0,68,0.00,,,0.00,0,Wunderground v.1.15,2013-09-15 04:13:00,
2013-09-14 23:18:00,68.3,57.3,29.83,SSE,163,8.0,11.0,68,0.00,,,0.00,0,Wunderground v.1.15,2013-09-15 04:18:00,
2013-09-14 23:23:00,68.3,57.3,29.83,South,174,7.0,9.0,68,0.00,,,0.00,0,Wunderground v.1.15,2013-09-15 04:23:00,
2013-09-14 23:28:00,68.3,57.3,29.83,South,176,7.0,10.0,68,0.00,,,0.00,0,Wunderground v.1.15,2013-09-15 04:28:00,
2013-09-14 23:33:00,68.3,57.3,29.83,SE,145,7.0,11.0,68,0.00,,,0.00,0,Wunderground v.1.15,2013-09-15 04:33:00,
2013-09-14 23:39:00,68.3,57.3,29.83,SE,142,8.0,11.0,68,0.00,,,0.00,0,Wunderground v.1.15,2013-09-15 04:39:00,
2013-09-14 23:45:00,68.5,57.5,29.83,SE,135,8.0,10.0,68,0.00,,,0.00,0,Wunderground v.1.15,2013-09-15 04:45:00,
2013-09-14 23:51:00,68.6,57.2,29.83,SSE,162,8.0,8.0,67,0.00,,,0.00,0,Wunderground v.1.15,2013-09-15 04:51:00,
2013-09-14 23:57:00,68.7,57.3,29.83,SSE,149,8.0,8.0,67,0.00,,,0.00,0,Wunderground v.1.15,2013-09-15 04:57:00,